createdAt,value
2018-02-25T00:00:22.954Z,1028.44
2018-02-25T00:01:22.898Z,1028.42
2018-02-25T00:02:22.943Z,1028.42
2018-02-25T00:03:22.784Z,1028.41
2018-02-25T00:04:22.727Z,1028.43
2018-02-25T00:05:22.670Z,1028.43
2018-02-25T00:06:22.614Z,1028.45
2018-02-25T00:07:22.556Z,1028.47
2018-02-25T00:08:22.503Z,1028.42
2018-02-25T00:09:22.443Z,1028.45
2018-02-25T00:10:22.386Z,1028.40
2018-02-25T00:11:22.329Z,1028.41
2018-02-25T00:12:22.278Z,1028.39
2018-02-25T00:13:22.217Z,1028.39
2018-02-25T00:14:22.164Z,1028.35
2018-02-25T00:15:22.101Z,1028.34
2018-02-25T00:16:22.045Z,1028.36
2018-02-25T00:17:21.991Z,1028.36
2018-02-25T00:18:21.931Z,1028.34
2018-02-25T00:19:21.875Z,1028.35
2018-02-25T00:20:21.818Z,1028.36
2018-02-25T00:21:21.761Z,1028.35
2018-02-25T00:22:21.704Z,1028.30
2018-02-25T00:23:21.647Z,1028.39
2018-02-25T00:24:21.589Z,1028.31
2018-02-25T00:25:21.533Z,1028.37
2018-02-25T00:26:21.476Z,1028.35
2018-02-25T00:27:21.419Z,1028.32
2018-02-25T00:28:21.362Z,1028.36
2018-02-25T00:29:21.305Z,1028.35
2018-02-25T00:30:21.248Z,1028.34
2018-02-25T00:31:21.192Z,1028.34
2018-02-25T00:32:21.134Z,1028.33
2018-02-25T00:33:21.078Z,1028.34
2018-02-25T00:34:21.021Z,1028.35
2018-02-25T00:35:20.988Z,1028.36
2018-02-25T00:36:20.907Z,1028.34
2018-02-25T00:37:20.851Z,1028.36
2018-02-25T00:38:20.794Z,1028.37
2018-02-25T00:39:20.737Z,1028.34
2018-02-25T00:40:20.680Z,1028.35
2018-02-25T00:41:20.624Z,1028.31
2018-02-25T00:42:20.568Z,1028.32
2018-02-25T00:43:20.510Z,1028.29
2018-02-25T00:44:20.461Z,1028.32
2018-02-25T00:45:20.446Z,1028.34
2018-02-25T00:46:20.339Z,1028.30
2018-02-25T00:47:20.283Z,1028.33
2018-02-25T00:48:20.226Z,1028.32
2018-02-25T00:49:20.170Z,1028.29
2018-02-25T00:50:20.115Z,1028.29
2018-02-25T00:51:20.056Z,1028.29
2018-02-25T00:52:19.999Z,1028.27
2018-02-25T00:53:19.942Z,1028.30
2018-02-25T00:54:19.886Z,1028.28
2018-02-25T00:55:19.827Z,1028.29
2018-02-25T00:56:19.771Z,1028.25
2018-02-25T00:57:19.717Z,1028.29
2018-02-25T00:58:19.659Z,1028.31
2018-02-25T00:59:19.604Z,1028.28
2018-02-25T01:00:19.544Z,1028.29
2018-02-25T01:01:19.488Z,1028.31
2018-02-25T01:02:19.432Z,1028.29
2018-02-25T01:03:19.374Z,1028.27
2018-02-25T01:04:19.317Z,1028.25
2018-02-25T01:05:19.261Z,1028.26
2018-02-25T01:06:19.205Z,1028.26
2018-02-25T01:07:19.147Z,1028.21
2018-02-25T01:08:19.090Z,1028.22
2018-02-25T01:09:19.035Z,1028.21
2018-02-25T01:10:18.979Z,1028.28
2018-02-25T01:11:18.919Z,1028.25
2018-02-25T01:12:18.863Z,1028.24
2018-02-25T01:13:18.809Z,1028.21
2018-02-25T01:14:18.749Z,1028.22
2018-02-25T01:15:18.694Z,1028.20
2018-02-25T01:16:18.635Z,1028.21
2018-02-25T01:17:18.578Z,1028.15
2018-02-25T01:18:18.528Z,1028.13
2018-02-25T01:19:18.464Z,1028.15
2018-02-25T01:20:18.407Z,1028.12
2018-02-25T01:21:18.351Z,1028.11
2018-02-25T01:22:18.293Z,1028.09
2018-02-25T01:23:18.236Z,1028.12
2018-02-25T01:24:18.179Z,1028.12
2018-02-25T01:25:18.126Z,1028.16
2018-02-25T01:26:18.066Z,1028.14
2018-02-25T01:27:18.013Z,1028.13
2018-02-25T01:28:17.951Z,1028.10
2018-02-25T01:29:17.895Z,1028.11
2018-02-25T01:30:17.839Z,1028.08
2018-02-25T01:31:17.781Z,1028.09
2018-02-25T01:32:17.725Z,1028.06
2018-02-25T01:33:17.668Z,1028.06
2018-02-25T01:34:17.610Z,1028.10
2018-02-25T01:35:17.553Z,1028.10
2018-02-25T01:36:17.497Z,1028.07
2018-02-25T01:37:17.440Z,1028.08
2018-02-25T01:38:17.383Z,1028.07
2018-02-25T01:39:17.329Z,1028.07
2018-02-25T01:40:17.269Z,1028.08
2018-02-25T01:41:17.212Z,1028.11
2018-02-25T01:42:17.155Z,1028.11
2018-02-25T01:43:17.097Z,1028.11
2018-02-25T01:44:17.041Z,1028.10
2018-02-25T01:45:16.984Z,1028.12
2018-02-25T01:46:16.928Z,1028.17
2018-02-25T01:47:16.870Z,1028.12
2018-02-25T01:48:16.813Z,1028.17
2018-02-25T01:49:16.756Z,1028.14
2018-02-25T01:50:16.700Z,1028.13
2018-02-25T01:51:16.642Z,1028.18
2018-02-25T01:52:16.585Z,1028.14
2018-02-25T01:53:16.528Z,1028.12
2018-02-25T01:54:16.472Z,1028.13
2018-02-25T01:55:16.414Z,1028.11
2018-02-25T01:56:16.357Z,1028.12
2018-02-25T01:57:16.351Z,1028.14
2018-02-25T01:58:16.244Z,1028.11
2018-02-25T01:59:16.186Z,1028.12
2018-02-25T02:00:16.130Z,1028.09
2018-02-25T02:01:16.073Z,1028.12
2018-02-25T02:02:16.016Z,1028.13
2018-02-25T02:03:15.958Z,1028.14
2018-02-25T02:04:15.902Z,1028.16
2018-02-25T02:05:15.854Z,1028.14
2018-02-25T02:06:15.788Z,1028.12
2018-02-25T02:07:15.731Z,1028.12
2018-02-25T02:08:15.677Z,1028.13
2018-02-25T02:09:15.617Z,1028.09
2018-02-25T02:10:15.560Z,1028.14
2018-02-25T02:11:15.503Z,1028.10
2018-02-25T02:12:15.446Z,1028.10
2018-02-25T02:13:15.388Z,1028.15
2018-02-25T02:14:15.332Z,1028.12
2018-02-25T02:15:15.275Z,1028.13
2018-02-25T02:16:15.219Z,1028.12
2018-02-25T02:17:15.161Z,1028.18
2018-02-25T02:18:15.104Z,1028.18
2018-02-25T02:19:15.047Z,1028.19
2018-02-25T02:20:14.990Z,1028.19
2018-02-25T02:21:14.935Z,1028.18
2018-02-25T02:22:14.927Z,1028.16
2018-02-25T02:23:14.819Z,1028.14
2018-02-25T02:24:14.764Z,1028.21
2018-02-25T02:25:14.705Z,1028.22
2018-02-25T02:26:14.648Z,1028.26
2018-02-25T02:27:14.591Z,1028.24
2018-02-25T02:28:14.584Z,1028.22
2018-02-25T02:29:14.477Z,1028.22
2018-02-25T02:30:14.422Z,1028.17
2018-02-25T02:31:14.363Z,1028.18
2018-02-25T02:32:14.309Z,1028.18
2018-02-25T02:33:14.250Z,1028.19
2018-02-25T02:34:14.192Z,1028.17
2018-02-25T02:35:14.135Z,1028.16
2018-02-25T02:36:14.077Z,1028.19
2018-02-25T02:37:14.022Z,1028.21
2018-02-25T02:38:13.966Z,1028.25
2018-02-25T02:39:13.905Z,1028.23
2018-02-25T02:40:13.848Z,1028.23
2018-02-25T02:41:13.792Z,1028.25
2018-02-25T02:42:13.739Z,1028.21
2018-02-25T02:43:13.676Z,1028.20
2018-02-25T02:44:13.621Z,1028.25
2018-02-25T02:45:13.562Z,1028.26
2018-02-25T02:46:13.505Z,1028.26
2018-02-25T02:47:13.448Z,1028.27
2018-02-25T02:48:13.393Z,1028.32
2018-02-25T02:49:13.334Z,1028.27
2018-02-25T02:50:13.277Z,1028.29
2018-02-25T02:51:13.221Z,1028.31
2018-02-25T02:52:13.162Z,1028.28
2018-02-25T02:53:13.109Z,1028.27
2018-02-25T02:54:13.049Z,1028.26
2018-02-25T02:55:12.991Z,1028.28
2018-02-25T02:56:12.933Z,1028.26
2018-02-25T02:57:12.877Z,1028.29
2018-02-25T02:58:12.821Z,1028.27
2018-02-25T02:59:12.760Z,1028.28
2018-02-25T03:00:12.704Z,1028.29
2018-02-25T03:01:12.648Z,1028.28
2018-02-25T03:02:12.590Z,1028.28
2018-02-25T03:03:12.532Z,1028.24
2018-02-25T03:04:12.476Z,1028.24
2018-02-25T03:05:12.418Z,1028.23
2018-02-25T03:06:12.362Z,1028.26
2018-02-25T03:07:12.304Z,1028.26
2018-02-25T03:08:12.246Z,1028.26
2018-02-25T03:09:12.189Z,1028.25
2018-02-25T03:10:12.131Z,1028.24
2018-02-25T03:11:12.083Z,1028.28
2018-02-25T03:12:12.018Z,1028.28
2018-02-25T03:13:11.960Z,1028.26
2018-02-25T03:14:11.903Z,1028.26
2018-02-25T03:15:11.845Z,1028.29
2018-02-25T03:16:11.787Z,1028.30
2018-02-25T03:17:11.731Z,1028.27
2018-02-25T03:18:11.674Z,1028.24
2018-02-25T03:19:11.615Z,1028.25
2018-02-25T03:20:11.559Z,1028.26
2018-02-25T03:21:11.502Z,1028.22
2018-02-25T03:22:11.448Z,1028.25
2018-02-25T03:23:11.388Z,1028.21
2018-02-25T03:24:11.329Z,1028.21
2018-02-25T03:25:11.272Z,1028.23
2018-02-25T03:26:11.218Z,1028.25
2018-02-25T03:27:11.157Z,1028.25
2018-02-25T03:28:11.100Z,1028.23
2018-02-25T03:29:11.043Z,1028.26
2018-02-25T03:30:10.986Z,1028.23
2018-02-25T03:31:10.928Z,1028.24
2018-02-25T03:32:10.877Z,1028.24
2018-02-25T03:33:10.813Z,1028.20
2018-02-25T03:34:10.756Z,1028.23
2018-02-25T03:35:10.698Z,1028.25
2018-02-25T03:36:10.640Z,1028.19
2018-02-25T03:37:10.583Z,1028.21
2018-02-25T03:38:10.526Z,1028.25
2018-02-25T03:39:10.468Z,1028.17
2018-02-25T03:40:10.410Z,1028.20
2018-02-25T03:41:10.353Z,1028.19
2018-02-25T03:42:10.296Z,1028.18
2018-02-25T03:43:10.238Z,1028.22
2018-02-25T03:44:10.183Z,1028.18
2018-02-25T03:45:10.123Z,1028.22
2018-02-25T03:46:10.066Z,1028.20
2018-02-25T03:47:10.014Z,1028.20
2018-02-25T03:48:09.951Z,1028.19
2018-02-25T03:49:09.894Z,1028.19
2018-02-25T03:50:09.839Z,1028.16
2018-02-25T03:51:09.778Z,1028.18
2018-02-25T03:52:09.727Z,1028.17
2018-02-25T03:53:09.664Z,1028.13
2018-02-25T03:54:09.607Z,1028.10
2018-02-25T03:55:09.548Z,1028.12
2018-02-25T03:56:09.492Z,1028.08
2018-02-25T03:57:09.434Z,1028.10
2018-02-25T03:58:09.386Z,1028.11
2018-02-25T03:59:09.324Z,1028.09
2018-02-25T04:00:09.265Z,1028.10
2018-02-25T04:01:09.205Z,1028.08
2018-02-25T04:02:09.147Z,1028.04
2018-02-25T04:03:09.089Z,1028.03
2018-02-25T04:04:09.032Z,1028.05
2018-02-25T04:05:08.975Z,1028.02
2018-02-25T04:06:08.920Z,1028.03
2018-02-25T04:07:08.859Z,1028.05
2018-02-25T04:08:08.802Z,1028.08
2018-02-25T04:09:08.745Z,1028.08
2018-02-25T04:10:08.688Z,1028.04
2018-02-25T04:11:08.630Z,1028.11
2018-02-25T04:12:08.573Z,1028.08
2018-02-25T04:13:08.517Z,1028.07
2018-02-25T04:14:08.459Z,1028.08
2018-02-25T04:15:08.400Z,1028.06
2018-02-25T04:16:08.342Z,1028.10
2018-02-25T04:17:08.288Z,1028.06
2018-02-25T04:18:08.228Z,1028.10
2018-02-25T04:19:08.170Z,1028.10
2018-02-25T04:20:08.113Z,1028.12
2018-02-25T04:21:08.056Z,1028.09
2018-02-25T04:22:07.999Z,1028.11
2018-02-25T04:23:07.940Z,1028.12
2018-02-25T04:24:07.883Z,1028.13
2018-02-25T04:25:07.826Z,1028.15
2018-02-25T04:26:07.769Z,1028.12
2018-02-25T04:27:07.710Z,1028.14
2018-02-25T04:28:07.654Z,1028.12
2018-02-25T04:29:07.597Z,1028.12
2018-02-25T04:30:07.537Z,1028.13
2018-02-25T04:31:07.481Z,1028.07
2018-02-25T04:32:07.424Z,1028.12
2018-02-25T04:33:07.367Z,1028.11
2018-02-25T04:34:07.309Z,1028.10
2018-02-25T04:35:07.251Z,1028.03
2018-02-25T04:36:07.193Z,1028.03
2018-02-25T04:37:07.136Z,1028.03
2018-02-25T04:38:07.081Z,1028.06
2018-02-25T04:39:07.086Z,1028.05
2018-02-25T04:40:06.963Z,1028.06
2018-02-25T04:41:06.906Z,1028.05
2018-02-25T04:42:06.850Z,1028.05
2018-02-25T04:43:06.791Z,1028.06
2018-02-25T04:44:06.732Z,1028.08
2018-02-25T04:45:06.675Z,1028.07
2018-02-25T04:46:06.618Z,1028.08
2018-02-25T04:47:06.560Z,1028.07
2018-02-25T04:48:06.504Z,1028.05
2018-02-25T04:49:06.445Z,1028.04
2018-02-25T04:50:06.386Z,1028.03
2018-02-25T04:51:06.330Z,1028.12
2018-02-25T04:52:06.271Z,1028.10
2018-02-25T04:53:06.214Z,1028.06
2018-02-25T04:54:06.157Z,1028.06
2018-02-25T04:55:06.101Z,1028.07
2018-02-25T04:56:06.040Z,1028.10
2018-02-25T04:57:05.984Z,1028.07
2018-02-25T04:58:05.931Z,1028.06
2018-02-25T04:59:05.866Z,1028.04
2018-02-25T05:00:05.810Z,1028.06
2018-02-25T05:01:05.770Z,1028.06
2018-02-25T05:02:05.695Z,1028.07
2018-02-25T05:03:05.636Z,1028.07
2018-02-25T05:04:05.582Z,1028.08
2018-02-25T05:05:05.522Z,1028.06
2018-02-25T05:06:05.464Z,1028.05
2018-02-25T05:07:05.406Z,1028.04
2018-02-25T05:08:05.349Z,1028.05
2018-02-25T05:09:05.295Z,1028.05
2018-02-25T05:10:05.234Z,1028.03
2018-02-25T05:11:05.175Z,1028.05
2018-02-25T05:12:05.118Z,1028.04
2018-02-25T05:13:05.061Z,1028.06
2018-02-25T05:14:05.003Z,1028.00
2018-02-25T05:15:04.945Z,1028.02
2018-02-25T05:16:04.889Z,1028.01
2018-02-25T05:17:04.830Z,1027.98
2018-02-25T05:18:04.773Z,1027.97
2018-02-25T05:19:04.715Z,1027.96
2018-02-25T05:20:04.658Z,1027.95
2018-02-25T05:21:04.601Z,1027.96
2018-02-25T05:22:04.543Z,1027.98
2018-02-25T05:23:04.484Z,1028.02
2018-02-25T05:24:04.428Z,1028.03
2018-02-25T05:25:04.370Z,1028.04
2018-02-25T05:26:04.313Z,1028.02
2018-02-25T05:27:04.257Z,1028.05
2018-02-25T05:28:04.197Z,1028.06
2018-02-25T05:29:04.143Z,1028.09
2018-02-25T05:30:04.083Z,1028.09
2018-02-25T05:31:04.024Z,1028.12
2018-02-25T05:32:03.967Z,1028.07
2018-02-25T05:33:03.910Z,1028.07
2018-02-25T05:34:03.853Z,1028.08
2018-02-25T05:35:03.794Z,1028.14
2018-02-25T05:36:03.736Z,1028.14
2018-02-25T05:37:03.679Z,1028.16
2018-02-25T05:38:03.622Z,1028.18
2018-02-25T05:39:03.563Z,1028.17
2018-02-25T05:40:03.506Z,1028.21
2018-02-25T05:41:03.449Z,1028.21
2018-02-25T05:42:03.392Z,1028.20
2018-02-25T05:43:03.338Z,1028.21
2018-02-25T05:44:03.277Z,1028.25
2018-02-25T05:45:03.219Z,1028.26
2018-02-25T05:46:03.162Z,1028.30
2018-02-25T05:47:03.103Z,1028.27
2018-02-25T05:48:03.046Z,1028.28
2018-02-25T05:49:02.989Z,1028.32
2018-02-25T05:50:02.931Z,1028.27
2018-02-25T05:51:02.873Z,1028.29
2018-02-25T05:52:02.816Z,1028.28
2018-02-25T05:53:02.759Z,1028.32
2018-02-25T05:54:02.705Z,1028.32
2018-02-25T05:55:02.644Z,1028.33
2018-02-25T05:56:02.586Z,1028.31
2018-02-25T05:57:02.529Z,1028.30
2018-02-25T05:58:02.471Z,1028.28
2018-02-25T05:59:02.413Z,1028.30
2018-02-25T06:00:02.355Z,1028.28
2018-02-25T06:01:02.298Z,1028.30
2018-02-25T06:02:02.240Z,1028.31
2018-02-25T06:03:02.182Z,1028.29
2018-02-25T06:04:02.124Z,1028.32
2018-02-25T06:05:02.071Z,1028.31
2018-02-25T06:06:02.010Z,1028.30
2018-02-25T06:07:01.950Z,1028.28
2018-02-25T06:08:01.893Z,1028.34
2018-02-25T06:09:01.839Z,1028.33
2018-02-25T06:10:01.778Z,1028.29
2018-02-25T06:11:01.719Z,1028.30
2018-02-25T06:12:01.662Z,1028.32
2018-02-25T06:13:01.604Z,1028.34
2018-02-25T06:14:01.547Z,1028.32
2018-02-25T06:15:01.488Z,1028.32
2018-02-25T06:16:01.429Z,1028.32
2018-02-25T06:17:01.374Z,1028.34
2018-02-25T06:18:01.315Z,1028.38
2018-02-25T06:19:01.256Z,1028.33
2018-02-25T06:20:01.199Z,1028.38
2018-02-25T06:21:01.141Z,1028.36
2018-02-25T06:22:01.084Z,1028.38
2018-02-25T06:23:01.025Z,1028.35
2018-02-25T06:24:00.968Z,1028.38
2018-02-25T06:25:00.912Z,1028.37
2018-02-25T06:26:00.854Z,1028.39
2018-02-25T06:27:00.794Z,1028.41
2018-02-25T06:28:00.736Z,1028.43
2018-02-25T06:29:00.679Z,1028.45
2018-02-25T06:30:00.621Z,1028.41
2018-02-25T06:31:00.562Z,1028.45
2018-02-25T06:32:00.505Z,1028.47
2018-02-25T06:33:00.447Z,1028.46
2018-02-25T06:34:00.393Z,1028.47
2018-02-25T06:35:00.332Z,1028.46
2018-02-25T06:36:00.274Z,1028.46
2018-02-25T06:37:00.217Z,1028.44
2018-02-25T06:38:00.160Z,1028.45
2018-02-25T06:39:00.102Z,1028.43
2018-02-25T06:40:00.044Z,1028.40
2018-02-25T06:40:59.986Z,1028.36
2018-02-25T06:41:59.931Z,1028.41
2018-02-25T06:42:59.971Z,1028.41
2018-02-25T06:43:59.813Z,1028.42
2018-02-25T06:44:59.756Z,1028.40
2018-02-25T06:45:59.700Z,1028.40
2018-02-25T06:46:59.641Z,1028.37
2018-02-25T06:47:59.584Z,1028.42
2018-02-25T06:48:59.527Z,1028.39
2018-02-25T06:49:59.469Z,1028.43
2018-02-25T06:50:59.413Z,1028.41
2018-02-25T06:51:59.355Z,1028.44
2018-02-25T06:52:59.347Z,1028.43
2018-02-25T06:53:59.241Z,1028.43
2018-02-25T06:54:59.183Z,1028.46
2018-02-25T06:55:59.125Z,1028.44
2018-02-25T06:56:59.069Z,1028.44
2018-02-25T06:57:59.011Z,1028.43
2018-02-25T06:58:58.953Z,1028.44
2018-02-25T06:59:58.896Z,1028.45
2018-02-25T07:00:58.842Z,1028.50
2018-02-25T07:01:58.783Z,1028.58
2018-02-25T07:02:58.725Z,1028.61
2018-02-25T07:03:58.673Z,1028.63
2018-02-25T07:04:58.611Z,1028.61
2018-02-25T07:05:58.555Z,1028.64
2018-02-25T07:06:58.499Z,1028.70
2018-02-25T07:07:58.496Z,1028.72
2018-02-25T07:08:58.389Z,1028.76
2018-02-25T07:09:58.333Z,1028.76
2018-02-25T07:10:58.278Z,1028.78
2018-02-25T07:11:58.222Z,1028.77
2018-02-25T07:12:58.173Z,1028.81
2018-02-25T07:13:58.117Z,1028.74
2018-02-25T07:14:58.062Z,1028.77
2018-02-25T07:15:58.010Z,1028.91
2018-02-25T07:16:57.958Z,1028.90
2018-02-25T07:17:57.908Z,1028.88
2018-02-25T07:18:57.853Z,1028.95
2018-02-25T07:19:57.801Z,1028.93
2018-02-25T07:20:57.752Z,1028.94
2018-02-25T07:21:57.699Z,1028.94
2018-02-25T07:22:57.647Z,1028.93
2018-02-25T07:23:57.597Z,1028.99
2018-02-25T07:24:57.550Z,1028.97
2018-02-25T07:25:57.498Z,1028.94
2018-02-25T07:26:57.447Z,1028.98
2018-02-25T07:27:57.398Z,1029.01
2018-02-25T07:28:57.349Z,1028.99
2018-02-25T07:29:57.301Z,1028.94
2018-02-25T07:30:57.252Z,1028.98
2018-02-25T07:31:57.204Z,1029.01
2018-02-25T07:32:57.156Z,1029.02
2018-02-25T07:33:57.109Z,1029.02
2018-02-25T07:34:57.066Z,1029.06
2018-02-25T07:35:57.015Z,1029.02
2018-02-25T07:36:56.968Z,1029.04
2018-02-25T07:37:56.921Z,1029.04
2018-02-25T07:38:56.874Z,1029.03
2018-02-25T07:39:56.828Z,1029.03
2018-02-25T07:40:56.781Z,1029.06
2018-02-25T07:41:56.736Z,1029.08
2018-02-25T07:42:56.691Z,1029.10
2018-02-25T07:43:56.645Z,1029.04
2018-02-25T07:44:56.600Z,1029.06
2018-02-25T07:45:56.561Z,1029.04
2018-02-25T07:46:56.510Z,1029.02
2018-02-25T07:47:56.466Z,1029.03
2018-02-25T07:48:56.421Z,1028.97
2018-02-25T07:49:56.377Z,1029.04
2018-02-25T07:50:56.332Z,1029.08
2018-02-25T07:51:56.288Z,1029.08
2018-02-25T07:52:56.245Z,1029.08
2018-02-25T07:53:56.202Z,1029.09
2018-02-25T07:54:56.157Z,1029.05
2018-02-25T07:55:56.137Z,1029.06
2018-02-25T07:56:56.070Z,1029.09
2018-02-25T07:57:56.026Z,1029.09
2018-02-25T07:58:55.982Z,1029.13
2018-02-25T07:59:55.938Z,1029.19
2018-02-25T08:00:55.895Z,1029.22
2018-02-25T08:01:55.852Z,1029.33
2018-02-25T08:02:55.807Z,1029.43
2018-02-25T08:03:55.764Z,1029.44
2018-02-25T08:04:55.720Z,1029.47
2018-02-25T08:05:55.678Z,1029.52
2018-02-25T08:06:55.636Z,1029.55
2018-02-25T08:07:55.593Z,1029.58
2018-02-25T08:08:55.547Z,1029.65
2018-02-25T08:09:55.504Z,1029.68
2018-02-25T08:10:55.460Z,1029.75
2018-02-25T08:11:55.420Z,1029.76
2018-02-25T08:12:55.377Z,1029.73
2018-02-25T08:13:55.335Z,1029.70
2018-02-25T08:14:55.293Z,1029.55
2018-02-25T08:15:55.248Z,1029.48
2018-02-25T08:16:55.206Z,1029.40
2018-02-25T08:17:55.165Z,1029.34
2018-02-25T08:18:55.122Z,1029.29
2018-02-25T08:19:55.086Z,1029.16
2018-02-25T08:20:55.039Z,1029.13
2018-02-25T08:21:55.003Z,1029.09
2018-02-25T08:22:54.958Z,1029.04
2018-02-25T08:23:54.916Z,1029.08
2018-02-25T08:24:54.875Z,1029.04
2018-02-25T08:25:54.834Z,1029.04
2018-02-25T08:26:54.792Z,1029.05
2018-02-25T08:27:54.751Z,1029.22
2018-02-25T08:28:54.711Z,1029.27
2018-02-25T08:29:54.672Z,1029.22
2018-02-25T08:30:54.630Z,1029.29
2018-02-25T08:31:54.590Z,1029.31
2018-02-25T08:32:54.550Z,1029.34
2018-02-25T08:33:54.510Z,1029.33
2018-02-25T08:34:54.471Z,1029.36
2018-02-25T08:35:54.429Z,1029.34
2018-02-25T08:36:54.389Z,1029.33
2018-02-25T08:37:54.369Z,1029.32
2018-02-25T08:38:54.310Z,1029.30
2018-02-25T08:39:54.273Z,1029.28
2018-02-25T08:40:54.231Z,1029.26
2018-02-25T08:41:54.218Z,1029.25
2018-02-25T08:42:54.152Z,1029.24
2018-02-25T08:43:54.120Z,1029.23
2018-02-25T08:44:54.075Z,1029.19
2018-02-25T08:45:54.037Z,1029.19
2018-02-25T08:46:54.000Z,1029.16
2018-02-25T08:47:53.959Z,1029.16
2018-02-25T08:48:53.922Z,1029.11
2018-02-25T08:49:53.890Z,1029.08
2018-02-25T08:50:53.845Z,1029.12
2018-02-25T08:51:53.807Z,1029.11
2018-02-25T08:52:53.769Z,1029.08
2018-02-25T08:53:53.732Z,1029.09
2018-02-25T08:54:53.693Z,1029.06
2018-02-25T08:55:53.656Z,1029.08
2018-02-25T08:56:53.618Z,1029.05
2018-02-25T08:57:53.580Z,1029.06
2018-02-25T08:58:53.542Z,1029.07
2018-02-25T08:59:53.505Z,1029.01
2018-02-25T09:00:53.468Z,1029.04
2018-02-25T09:01:53.433Z,1029.03
2018-02-25T09:02:53.393Z,1029.06
2018-02-25T09:03:53.355Z,1029.04
2018-02-25T09:04:53.326Z,1029.05
2018-02-25T09:05:53.282Z,1029.04
2018-02-25T09:06:53.244Z,1029.01
2018-02-25T09:07:53.207Z,1029.05
2018-02-25T09:08:53.171Z,1029.02
2018-02-25T09:09:53.133Z,1029.05
2018-02-25T09:10:53.096Z,1029.03
2018-02-25T09:11:53.059Z,1029.01
2018-02-25T09:12:53.023Z,1028.98
2018-02-25T09:13:52.993Z,1029.01
2018-02-25T09:14:52.949Z,1029.04
2018-02-25T09:15:52.912Z,1028.98
2018-02-25T09:16:52.876Z,1028.94
2018-02-25T09:17:52.840Z,1028.92
2018-02-25T09:18:52.801Z,1028.99
2018-02-25T09:19:52.764Z,1028.99
2018-02-25T09:20:52.730Z,1029.03
2018-02-25T09:21:52.691Z,1029.03
2018-02-25T09:22:52.654Z,1028.99
2018-02-25T09:23:52.615Z,1028.97
2018-02-25T09:24:52.578Z,1028.97
2018-02-25T09:25:52.540Z,1028.96
2018-02-25T09:26:52.502Z,1028.98
2018-02-25T09:27:52.464Z,1028.95
2018-02-25T09:28:52.427Z,1029.01
2018-02-25T09:29:52.388Z,1028.99
2018-02-25T09:30:52.356Z,1028.90
2018-02-25T09:31:52.312Z,1028.87
2018-02-25T09:32:52.275Z,1028.85
2018-02-25T09:33:52.237Z,1028.86
2018-02-25T09:34:52.198Z,1028.89
2018-02-25T09:35:52.195Z,1028.91
2018-02-25T09:36:52.122Z,1028.88
2018-02-25T09:37:52.084Z,1028.87
2018-02-25T09:38:52.045Z,1028.82
2018-02-25T09:39:52.006Z,1028.89
2018-02-25T09:40:51.970Z,1028.93
2018-02-25T09:41:51.928Z,1028.90
2018-02-25T09:42:51.888Z,1028.91
2018-02-25T09:43:51.849Z,1028.85
2018-02-25T09:44:51.809Z,1028.76
2018-02-25T09:45:51.770Z,1028.68
2018-02-25T09:46:51.731Z,1028.74
2018-02-25T09:47:51.689Z,1028.73
2018-02-25T09:48:51.649Z,1028.72
2018-02-25T09:49:51.609Z,1028.66
2018-02-25T09:50:51.567Z,1028.59
2018-02-25T09:51:51.533Z,1028.60
2018-02-25T09:52:51.488Z,1028.60
2018-02-25T09:53:51.444Z,1028.62
2018-02-25T09:54:51.402Z,1028.59
2018-02-25T09:55:51.360Z,1028.58
2018-02-25T09:56:51.318Z,1028.58
2018-02-25T09:57:51.276Z,1028.53
2018-02-25T09:58:51.232Z,1028.53
2018-02-25T09:59:51.190Z,1028.56
2018-02-25T10:00:51.147Z,1028.47
2018-02-25T10:01:51.105Z,1028.45
2018-02-25T10:02:51.059Z,1028.41
2018-02-25T10:03:51.059Z,1028.35
2018-02-25T10:04:50.973Z,1028.33
2018-02-25T10:05:50.980Z,1028.25
2018-02-25T10:06:50.884Z,1028.19
2018-02-25T10:07:50.840Z,1028.20
2018-02-25T10:08:50.795Z,1028.16
2018-02-25T10:09:50.750Z,1028.16
2018-02-25T10:10:50.708Z,1028.16
2018-02-25T10:11:50.659Z,1028.16
2018-02-25T10:12:50.614Z,1028.16
2018-02-25T10:13:50.569Z,1028.13
2018-02-25T10:14:50.528Z,1028.12
2018-02-25T10:15:50.476Z,1028.08
2018-02-25T10:16:50.429Z,1028.09
2018-02-25T10:17:50.384Z,1028.02
2018-02-25T10:18:50.339Z,1028.04
2018-02-25T10:19:50.290Z,1028.02
2018-02-25T10:20:50.246Z,1028.02
2018-02-25T10:21:50.196Z,1028.03
2018-02-25T10:22:50.148Z,1028.02
2018-02-25T10:23:50.101Z,1028.01
2018-02-25T10:24:50.054Z,1027.99
2018-02-25T10:25:50.006Z,1027.99
2018-02-25T10:26:49.958Z,1027.90
2018-02-25T10:27:49.911Z,1027.93
2018-02-25T10:28:49.963Z,1027.96
2018-02-25T10:29:49.816Z,1027.89
2018-02-25T10:30:49.766Z,1027.91
2018-02-25T10:31:49.721Z,1027.92
2018-02-25T10:32:49.674Z,1027.89
2018-02-25T10:33:49.623Z,1027.97
2018-02-25T10:34:49.573Z,1027.96
2018-02-25T10:35:49.525Z,1027.96
2018-02-25T10:36:49.477Z,1027.99
2018-02-25T10:37:49.428Z,1028.03
2018-02-25T10:38:49.439Z,1027.98
2018-02-25T10:39:49.333Z,1028.07
2018-02-25T10:40:49.282Z,1028.07
2018-02-25T10:41:49.234Z,1028.05
2018-02-25T10:42:49.184Z,1027.96
2018-02-25T10:43:49.134Z,1027.94
2018-02-25T10:44:49.085Z,1027.93
2018-02-25T10:45:49.039Z,1027.89
2018-02-25T10:46:48.989Z,1027.89
2018-02-25T10:47:48.937Z,1027.85
2018-02-25T10:48:48.888Z,1027.81
2018-02-25T10:49:48.838Z,1027.82
2018-02-25T10:50:48.789Z,1027.78
2018-02-25T10:51:48.739Z,1027.77
2018-02-25T10:52:48.692Z,1027.76
2018-02-25T10:53:48.640Z,1027.74
2018-02-25T10:54:48.589Z,1027.68
2018-02-25T10:55:48.543Z,1027.69
2018-02-25T10:56:48.488Z,1027.69
2018-02-25T10:57:48.442Z,1027.66
2018-02-25T10:58:48.387Z,1027.66
2018-02-25T10:59:48.337Z,1027.64
2018-02-25T11:00:48.287Z,1027.61
2018-02-25T11:01:48.237Z,1027.60
2018-02-25T11:02:48.187Z,1027.58
2018-02-25T11:03:48.193Z,1027.59
2018-02-25T11:04:48.085Z,1027.56
2018-02-25T11:05:48.035Z,1027.56
2018-02-25T11:06:47.983Z,1027.54
2018-02-25T11:07:47.934Z,1027.52
2018-02-25T11:08:47.882Z,1027.50
2018-02-25T11:09:47.832Z,1027.54
2018-02-25T11:10:47.884Z,1027.52
2018-02-25T11:11:47.728Z,1027.52
2018-02-25T11:12:47.678Z,1027.50
2018-02-25T11:13:47.628Z,1027.52
2018-02-25T11:14:47.575Z,1027.47
2018-02-25T11:15:47.525Z,1027.49
2018-02-25T11:16:47.474Z,1027.47
2018-02-25T11:17:47.423Z,1027.46
2018-02-25T11:18:47.374Z,1027.46
2018-02-25T11:19:47.320Z,1027.46
2018-02-25T11:20:47.273Z,1027.43
2018-02-25T11:21:47.219Z,1027.43
2018-02-25T11:22:47.167Z,1027.41
2018-02-25T11:23:47.116Z,1027.37
2018-02-25T11:24:47.065Z,1027.35
2018-02-25T11:25:47.013Z,1027.37
2018-02-25T11:26:46.962Z,1027.33
2018-02-25T11:27:46.911Z,1027.29
2018-02-25T11:28:46.859Z,1027.31
2018-02-25T11:29:46.809Z,1027.29
2018-02-25T11:30:46.756Z,1027.31
2018-02-25T11:31:46.705Z,1027.24
2018-02-25T11:32:46.654Z,1027.25
2018-02-25T11:33:46.603Z,1027.19
2018-02-25T11:34:46.551Z,1027.18
2018-02-25T11:35:46.500Z,1027.17
2018-02-25T11:36:46.449Z,1027.15
2018-02-25T11:37:46.397Z,1027.13
2018-02-25T11:38:46.345Z,1027.15
2018-02-25T11:39:46.294Z,1027.11
2018-02-25T11:40:46.242Z,1027.10
2018-02-25T11:41:46.193Z,1027.13
2018-02-25T11:42:46.139Z,1027.12
2018-02-25T11:43:46.094Z,1027.05
2018-02-25T11:44:46.084Z,1027.09
2018-02-25T11:45:45.986Z,1027.03
2018-02-25T11:46:45.933Z,1027.01
2018-02-25T11:47:45.882Z,1027.00
2018-02-25T11:48:45.830Z,1027.00
2018-02-25T11:49:45.780Z,1026.98
2018-02-25T11:50:45.727Z,1026.96
2018-02-25T11:51:45.676Z,1026.93
2018-02-25T11:52:45.624Z,1026.96
2018-02-25T11:53:45.574Z,1026.96
2018-02-25T11:54:45.521Z,1026.92
2018-02-25T11:55:45.470Z,1026.87
2018-02-25T11:56:45.418Z,1026.87
2018-02-25T11:57:45.371Z,1026.91
2018-02-25T11:58:45.314Z,1026.89
2018-02-25T11:59:45.264Z,1026.89
2018-02-25T12:00:45.211Z,1026.94
2018-02-25T12:01:45.160Z,1026.89
2018-02-25T12:02:45.109Z,1026.88
2018-02-25T12:03:45.056Z,1026.86
2018-02-25T12:04:45.006Z,1026.83